Mount Shasta, CA

11:17 AM PST on December 09, 2016 (GMT -0800)
Mount Shasta | | Change Station

Elev 3533 ft 41.32 °N, 122.32 °W | Updated 12 minutes ago

Overcast
Overcast
44 °F
Feels Like 42 °F
N
4
Wind Variable Wind from Variable

Today
High -- | Low -- °F
--% Chance of Precip.
Yesterday
High -- | Low -- °F
Precip. -- in
Pressure 30.14 in
Visibility 9.0 miles
Clouds Mostly Cloudy 1000 ft
Mostly Cloudy 1400 ft
Overcast 3000 ft
Windchill 42 °F
Dew Point 41 °F
Humidity 89%
Rainfall 0.01 in
Snow Depth Not available.
7:23 AM 4:39 PM
Waxing Gibbous, 76% visible
SPECI KMHS 091905Z AUTO VRB03KT 9SM BKN010 BKN014 OVC030 07/05 A3014 RMK AO2 CIG 006V013 T00670050
Pressure 30.14 in
Visibility 9.0 miles
Clouds Mostly Cloudy 1000 ft
Mostly Cloudy 1400 ft
Overcast 3000 ft
Windchill 42 °F
Dew Point 41 °F
Humidity 89%
Rainfall 0.01 in
Snow Depth Not available.
7:23 AM 4:39 PM
Waxing Gibbous, 76% visible
SPECI KMHS 091905Z AUTO VRB03KT 9SM BKN010 BKN014 OVC030 07/05 A3014 RMK AO2 CIG 006V013 T00670050

10-Day Weather Forecast

Almanac

Astronomy

Dec. 09, 2016 Rise Set
Actual Time
Civil Twilight
Nautical Twilight
Astronomical Twilight
Moon
Length of Visible Light
Length of Day
Tomorrow will be .
, % of the Moon is Illuminated

Today's Extremes

State Highs State Lows

Community

WunderPhotos

Upload Photos

1,956,499 photos uploaded!

WunderBlog® & News

Nearby

Air Quality

  Air Quality AQ Index Pollutant
Not available.

Snow Depth

Station Depth Elevation

Earthquake Activity

City Distance Mag. Time & Date
Minimum magnitude displayed is 2.5.

Coastal Water Temperatures

Place Temperature

Stations

Nearby Weather Stations

Station Location Temp. Windchill Dew Point Humidity Wind Precip. Elev Updated Type
                   

Watches & Warnings

There are currently no watches in effect.